createdAt,value
2019-02-05T00:00:06.617Z,22.62
2019-02-05T00:03:11.092Z,22.62
2019-02-05T00:06:14.682Z,22.61
2019-02-05T00:09:18.262Z,22.60
2019-02-05T00:12:21.865Z,22.59
2019-02-05T00:15:25.576Z,22.60
2019-02-05T00:18:29.174Z,22.59
2019-02-05T00:21:32.775Z,22.59
2019-02-05T00:24:37.555Z,22.59
2019-02-05T00:27:41.215Z,22.57
2019-02-05T00:30:44.910Z,22.57
2019-02-05T00:33:48.645Z,22.57
2019-02-05T00:36:52.330Z,22.55
2019-02-05T00:39:55.927Z,22.56
2019-02-05T00:42:59.585Z,22.56
2019-02-05T00:46:04.271Z,22.56
2019-02-05T00:49:07.979Z,22.54
2019-02-05T00:52:11.661Z,22.54
2019-02-05T00:55:15.414Z,22.56
2019-02-05T00:58:19.088Z,22.54
2019-02-05T01:01:22.786Z,22.54
2019-02-05T01:04:26.510Z,22.54
2019-02-05T01:07:30.234Z,22.53
2019-02-05T01:10:33.918Z,22.53
2019-02-05T01:13:37.535Z,22.53
2019-02-05T01:16:41.118Z,22.54
2019-02-05T01:19:44.719Z,22.52
2019-02-05T01:22:48.343Z,22.51
2019-02-05T01:25:52.049Z,22.52
2019-02-05T01:28:55.640Z,22.52
2019-02-05T01:31:59.239Z,22.51
2019-02-05T01:35:02.949Z,22.51
2019-02-05T01:38:06.643Z,22.50
2019-02-05T01:41:10.354Z,22.49
2019-02-05T01:44:13.973Z,22.50
2019-02-05T01:47:17.573Z,22.50
2019-02-05T01:50:25.677Z,22.49
2019-02-05T01:53:29.268Z,22.50
2019-02-05T01:56:40.482Z,22.49
2019-02-05T01:59:38.321Z,22.49
2019-02-05T02:02:42.049Z,22.49
2019-02-05T02:05:45.752Z,22.47
2019-02-05T02:08:49.332Z,22.47
2019-02-05T02:11:54.171Z,22.48
2019-02-05T02:14:57.875Z,22.47
2019-02-05T02:18:01.641Z,22.46
2019-02-05T02:21:05.289Z,22.45
2019-02-05T02:24:09.020Z,22.46
2019-02-05T02:27:12.698Z,22.44
2019-02-05T02:30:22.785Z,22.45
2019-02-05T02:33:26.466Z,22.45
2019-02-05T02:36:30.166Z,22.44
2019-02-05T02:39:34.075Z,22.43
2019-02-05T02:42:38.835Z,22.43
2019-02-05T02:45:42.425Z,22.43
2019-02-05T02:48:47.432Z,22.43
2019-02-05T02:51:51.163Z,22.44
2019-02-05T02:54:54.944Z,22.43
2019-02-05T02:57:58.973Z,22.41
2019-02-05T03:01:02.693Z,22.42
2019-02-05T03:04:06.289Z,22.43
2019-02-05T03:07:10.318Z,22.43
2019-02-05T03:10:19.195Z,22.43
2019-02-05T03:13:22.824Z,22.43
2019-02-05T03:16:26.854Z,22.43
2019-02-05T03:19:30.429Z,22.42
2019-02-05T03:22:34.151Z,22.43
2019-02-05T03:25:37.863Z,22.43
2019-02-05T03:28:41.583Z,22.42
2019-02-05T03:31:46.307Z,22.42
2019-02-05T03:34:49.994Z,22.42
2019-02-05T03:37:53.711Z,22.41
2019-02-05T03:41:04.675Z,22.40
2019-02-05T03:44:08.392Z,22.40
2019-02-05T03:47:11.988Z,22.40
2019-02-05T03:50:15.568Z,22.39
2019-02-05T03:53:19.410Z,22.38
2019-02-05T03:56:39.498Z,22.39
2019-02-05T04:00:07.538Z,22.39
2019-02-05T04:03:37.577Z,22.38
2019-02-05T04:07:25.827Z,22.37
2019-02-05T04:11:23.289Z,22.37
2019-02-05T04:14:58.434Z,22.37
2019-02-05T04:18:26.403Z,22.37
2019-02-05T04:21:48.045Z,22.37
2019-02-05T04:25:27.566Z,22.37
2019-02-05T04:28:50.112Z,22.36
2019-02-05T04:32:29.919Z,22.37
2019-02-05T04:36:01.351Z,22.37
2019-02-05T04:39:29.545Z,22.36
2019-02-05T04:42:46.758Z,22.37
2019-02-05T04:46:27.080Z,22.37
2019-02-05T04:49:56.489Z,22.37
2019-02-05T04:53:40.913Z,22.37
2019-02-05T04:57:28.891Z,22.37
2019-02-05T05:01:01.116Z,22.36
2019-02-05T05:04:31.625Z,22.34
2019-02-05T05:08:22.859Z,22.34
2019-02-05T05:11:26.573Z,22.36
2019-02-05T05:14:30.159Z,22.33
2019-02-05T05:17:34.267Z,22.32
2019-02-05T05:20:39.017Z,22.32
2019-02-05T05:23:45.129Z,22.32
2019-02-05T05:26:48.088Z,22.31
2019-02-05T05:29:51.728Z,22.32
2019-02-05T05:32:55.466Z,22.31
2019-02-05T05:35:59.099Z,22.31
2019-02-05T05:39:02.968Z,22.30
2019-02-05T05:42:06.579Z,22.30
2019-02-05T05:45:13.843Z,22.32
2019-02-05T05:48:17.465Z,22.31
2019-02-05T05:51:21.196Z,22.30
2019-02-05T05:54:24.799Z,22.29
2019-02-05T05:57:28.419Z,22.29
2019-02-05T06:00:32.081Z,22.30
2019-02-05T06:03:35.680Z,22.30
2019-02-05T06:06:39.221Z,22.31
2019-02-05T06:09:43.080Z,22.30
2019-02-05T06:12:46.701Z,22.30
2019-02-05T06:15:50.435Z,22.30
2019-02-05T06:18:54.118Z,22.30
2019-02-05T06:21:57.710Z,22.31
2019-02-05T06:25:01.341Z,22.32
2019-02-05T06:28:05.257Z,22.30
2019-02-05T06:31:08.936Z,22.29
2019-02-05T06:34:12.663Z,22.30
2019-02-05T06:37:17.798Z,22.31
2019-02-05T06:40:21.660Z,22.31
2019-02-05T06:43:25.393Z,22.31
2019-02-05T06:46:29.125Z,22.32
2019-02-05T06:49:32.839Z,22.31
2019-02-05T06:52:36.427Z,22.31
2019-02-05T06:55:40.031Z,22.29
2019-02-05T06:58:46.367Z,22.29
2019-02-05T07:01:49.089Z,22.29
2019-02-05T07:04:52.793Z,22.29
2019-02-05T07:07:56.492Z,22.30
2019-02-05T07:11:00.089Z,22.28
2019-02-05T07:14:03.864Z,22.29
2019-02-05T07:17:07.596Z,22.29
2019-02-05T07:20:13.243Z,22.29
2019-02-05T07:23:17.160Z,22.29
2019-02-05T07:26:20.755Z,22.27
2019-02-05T07:29:24.457Z,22.29
2019-02-05T07:32:28.168Z,22.27
2019-02-05T07:35:31.859Z,22.26
2019-02-05T07:38:35.772Z,22.26
2019-02-05T07:41:39.513Z,22.25
2019-02-05T07:44:43.193Z,22.27
2019-02-05T07:47:46.939Z,22.26
2019-02-05T07:50:50.610Z,22.26
2019-02-05T07:53:54.333Z,22.28
2019-02-05T07:56:58.049Z,22.26
2019-02-05T08:00:01.741Z,22.27
2019-02-05T08:03:05.479Z,22.29
2019-02-05T08:06:09.138Z,22.30
2019-02-05T08:09:14.953Z,22.34
2019-02-05T08:12:18.809Z,22.35
2019-02-05T08:15:27.504Z,22.38
2019-02-05T08:18:32.164Z,22.41
2019-02-05T08:21:35.928Z,22.42
2019-02-05T08:24:39.563Z,22.42
2019-02-05T08:27:43.298Z,22.43
2019-02-05T08:30:48.076Z,22.46
2019-02-05T08:33:51.615Z,22.46
2019-02-05T08:36:55.212Z,22.47
2019-02-05T08:39:58.911Z,22.48
2019-02-05T08:43:02.660Z,22.49
2019-02-05T08:46:06.320Z,22.49
2019-02-05T08:49:10.050Z,22.50
2019-02-05T08:52:13.647Z,22.51
2019-02-05T08:55:18.795Z,22.53
2019-02-05T08:58:30.511Z,22.54
2019-02-05T09:01:27.724Z,22.54
2019-02-05T09:04:31.632Z,22.55
2019-02-05T09:07:35.359Z,22.56
2019-02-05T09:10:42.159Z,22.58
2019-02-05T09:13:47.258Z,22.58
2019-02-05T09:16:51.961Z,22.56
2019-02-05T09:19:55.684Z,22.58
2019-02-05T09:22:59.819Z,22.61
2019-02-05T09:26:03.565Z,22.63
2019-02-05T09:29:07.212Z,22.65
2019-02-05T09:32:10.920Z,22.64
2019-02-05T09:35:14.623Z,22.63
2019-02-05T09:38:18.328Z,22.63
2019-02-05T09:41:22.103Z,22.63
2019-02-05T09:44:25.770Z,22.65
2019-02-05T09:47:29.469Z,22.66
2019-02-05T09:50:44.204Z,22.67
2019-02-05T09:53:39.529Z,22.70
2019-02-05T09:56:43.246Z,22.70
2019-02-05T09:59:46.938Z,22.72
2019-02-05T10:02:51.796Z,22.75
2019-02-05T10:05:56.400Z,22.78
2019-02-05T10:09:00.120Z,22.78
2019-02-05T10:12:03.848Z,22.78
2019-02-05T10:15:11.401Z,22.79
2019-02-05T10:18:14.942Z,22.79
2019-02-05T10:21:18.609Z,22.78
2019-02-05T10:24:23.564Z,22.79
2019-02-05T10:27:27.285Z,22.78
2019-02-05T10:30:33.282Z,22.80
2019-02-05T10:33:37.740Z,22.80
2019-02-05T10:36:41.437Z,22.78
2019-02-05T10:39:45.152Z,22.81
2019-02-05T10:42:48.988Z,22.83
2019-02-05T10:45:53.598Z,22.83
2019-02-05T10:48:57.196Z,22.82
2019-02-05T10:52:02.941Z,22.87
2019-02-05T10:55:07.985Z,22.84
2019-02-05T10:58:11.687Z,22.83
2019-02-05T11:01:15.405Z,22.82
2019-02-05T11:04:20.115Z,22.82
2019-02-05T11:07:24.666Z,22.80
2019-02-05T11:10:29.380Z,22.79
2019-02-05T11:13:33.100Z,22.78
2019-02-05T11:16:36.800Z,22.79
2019-02-05T11:19:41.523Z,22.77
2019-02-05T11:22:45.109Z,22.77
2019-02-05T11:25:48.731Z,22.77
2019-02-05T11:28:52.458Z,22.77
2019-02-05T11:31:56.167Z,22.77
2019-02-05T11:35:01.188Z,22.77
2019-02-05T11:38:05.255Z,22.78
2019-02-05T11:41:09.916Z,22.77
2019-02-05T11:44:13.834Z,22.78
2019-02-05T11:47:18.576Z,22.78
2019-02-05T11:50:22.283Z,22.79
2019-02-05T11:53:26.211Z,22.80
2019-02-05T11:56:29.941Z,22.80
2019-02-05T11:59:33.607Z,22.80
2019-02-05T12:02:37.522Z,22.80
2019-02-05T12:05:42.297Z,22.80
2019-02-05T12:08:46.984Z,22.80
2019-02-05T12:11:52.722Z,22.78
2019-02-05T12:14:56.425Z,22.80
2019-02-05T12:18:00.164Z,22.79
2019-02-05T12:21:03.941Z,22.79
2019-02-05T12:24:07.607Z,22.79
2019-02-05T12:27:11.280Z,22.79
2019-02-05T12:30:23.692Z,22.78
2019-02-05T12:33:28.414Z,22.78
2019-02-05T12:36:32.167Z,22.77
2019-02-05T12:39:37.745Z,22.76
2019-02-05T12:42:42.530Z,22.76
2019-02-05T12:45:46.233Z,22.75
2019-02-05T12:48:49.904Z,22.75
2019-02-05T12:51:53.616Z,22.74
2019-02-05T12:54:57.276Z,22.74
2019-02-05T12:58:01.025Z,22.76
2019-02-05T13:01:04.737Z,22.76
2019-02-05T13:04:08.401Z,22.79
2019-02-05T13:07:12.096Z,22.78
2019-02-05T13:10:17.225Z,22.80
2019-02-05T13:13:20.977Z,22.80
2019-02-05T13:16:24.646Z,22.80
2019-02-05T13:19:28.386Z,22.79
2019-02-05T13:22:32.088Z,22.80
2019-02-05T13:25:35.979Z,22.79
2019-02-05T13:28:39.731Z,22.79
2019-02-05T13:31:43.459Z,22.79
2019-02-05T13:34:47.127Z,22.79
2019-02-05T13:37:51.082Z,22.79
2019-02-05T13:40:54.744Z,22.79
2019-02-05T13:43:58.481Z,22.80
2019-02-05T13:47:02.179Z,22.80
2019-02-05T13:50:08.368Z,22.79
2019-02-05T13:53:12.005Z,22.80
2019-02-05T13:56:15.705Z,22.79
2019-02-05T13:59:19.417Z,22.79
2019-02-05T14:02:23.134Z,22.79
2019-02-05T14:05:26.859Z,22.78
2019-02-05T14:08:31.540Z,22.78
2019-02-05T14:11:35.266Z,22.78
2019-02-05T14:14:38.981Z,22.77
2019-02-05T14:17:42.578Z,22.77
2019-02-05T14:20:46.403Z,22.77
2019-02-05T14:23:50.104Z,22.75
2019-02-05T14:26:53.799Z,22.73
2019-02-05T14:29:57.500Z,22.73
2019-02-05T14:33:01.194Z,22.74
2019-02-05T14:36:04.935Z,22.73
2019-02-05T14:39:10.027Z,22.73
2019-02-05T14:42:13.747Z,22.74
2019-02-05T14:45:17.532Z,22.75
2019-02-05T14:48:21.141Z,22.77
2019-02-05T14:51:24.884Z,22.79
2019-02-05T14:54:28.588Z,22.80
2019-02-05T14:57:32.268Z,22.82
2019-02-05T15:00:37.015Z,22.81
2019-02-05T15:03:40.740Z,22.84
2019-02-05T15:06:44.510Z,22.85
2019-02-05T15:09:48.196Z,22.84
2019-02-05T15:12:51.923Z,22.84
2019-02-05T15:15:55.568Z,22.84
2019-02-05T15:18:59.254Z,22.84
2019-02-05T15:22:02.949Z,22.84
2019-02-05T15:25:07.976Z,22.81
2019-02-05T15:28:11.598Z,22.80
2019-02-05T15:31:15.288Z,22.77
2019-02-05T15:34:27.158Z,22.78
2019-02-05T15:37:30.932Z,22.77
2019-02-05T15:40:35.652Z,22.77
2019-02-05T15:43:39.528Z,22.76
2019-02-05T15:46:43.286Z,22.76
2019-02-05T15:49:46.945Z,22.76
2019-02-05T15:52:51.936Z,22.78
2019-02-05T15:55:56.633Z,22.77
2019-02-05T15:59:00.331Z,22.76
2019-02-05T16:02:06.307Z,22.76
2019-02-05T16:05:10.890Z,22.75
2019-02-05T16:08:14.496Z,22.76
2019-02-05T16:11:18.425Z,22.76
2019-02-05T16:14:22.238Z,22.76
2019-02-05T16:17:26.847Z,22.75
2019-02-05T16:20:30.573Z,22.76
2019-02-05T16:23:34.165Z,22.80
2019-02-05T16:26:37.760Z,22.80
2019-02-05T16:29:41.692Z,22.79
2019-02-05T16:32:45.475Z,22.79
2019-02-05T16:35:49.111Z,22.78
2019-02-05T16:38:54.357Z,22.80
2019-02-05T16:41:57.979Z,22.80
2019-02-05T16:45:01.678Z,22.80
2019-02-05T16:48:06.653Z,22.80
2019-02-05T16:51:10.293Z,22.80
2019-02-05T16:54:13.995Z,22.79
2019-02-05T16:57:17.704Z,22.80
2019-02-05T17:00:26.807Z,22.83
2019-02-05T17:03:30.432Z,22.85
2019-02-05T17:06:34.050Z,22.85
2019-02-05T17:09:37.639Z,22.86
2019-02-05T17:12:41.170Z,22.87
2019-02-05T17:15:44.747Z,22.89
2019-02-05T17:18:48.341Z,22.90
2019-02-05T17:21:52.043Z,22.90
2019-02-05T17:24:55.767Z,22.91
2019-02-05T17:28:00.065Z,22.91
2019-02-05T17:31:04.712Z,22.93
2019-02-05T17:34:08.282Z,22.91
2019-02-05T17:37:12.019Z,22.92
2019-02-05T17:40:17.325Z,22.92
2019-02-05T17:43:21.108Z,22.92
2019-02-05T17:46:25.790Z,22.93
2019-02-05T17:49:29.497Z,22.93
2019-02-05T17:52:33.215Z,22.93
2019-02-05T17:55:36.821Z,22.95
2019-02-05T17:58:40.406Z,22.95
2019-02-05T18:01:44.015Z,22.95
2019-02-05T18:04:47.640Z,22.97
2019-02-05T18:07:52.189Z,22.98
2019-02-05T18:10:55.763Z,22.98
2019-02-05T18:13:59.363Z,22.99
2019-02-05T18:17:03.988Z,22.99
2019-02-05T18:20:09.100Z,22.99
2019-02-05T18:23:12.624Z,23.00
2019-02-05T18:26:16.245Z,23.01
2019-02-05T18:29:19.827Z,23.02
2019-02-05T18:32:23.427Z,23.01
2019-02-05T18:35:27.142Z,23.03
2019-02-05T18:38:30.871Z,23.04
2019-02-05T18:41:34.540Z,23.04
2019-02-05T18:44:38.070Z,23.04
2019-02-05T18:47:41.625Z,23.02
2019-02-05T18:50:45.242Z,23.04
2019-02-05T18:53:49.985Z,23.03
2019-02-05T18:56:53.692Z,23.03
2019-02-05T18:59:57.534Z,23.04
2019-02-05T19:03:01.312Z,23.03
2019-02-05T19:06:04.903Z,23.02
2019-02-05T19:09:13.171Z,23.02
2019-02-05T19:12:16.945Z,23.02
2019-02-05T19:15:23.101Z,23.03
2019-02-05T19:18:26.807Z,23.03
2019-02-05T19:21:30.364Z,23.02
2019-02-05T19:24:42.515Z,23.03
2019-02-05T19:27:48.161Z,23.03
2019-02-05T19:30:52.997Z,23.05
2019-02-05T19:33:57.634Z,23.06
2019-02-05T19:37:01.602Z,23.04
2019-02-05T19:40:05.650Z,23.06
2019-02-05T19:43:09.373Z,23.07
2019-02-05T19:46:37.397Z,23.07
2019-02-05T19:49:51.185Z,23.08
2019-02-05T19:52:55.004Z,23.07
2019-02-05T19:55:58.559Z,23.08
2019-02-05T19:59:03.315Z,23.09
2019-02-05T20:02:07.085Z,23.09
2019-02-05T20:05:10.723Z,23.09
2019-02-05T20:08:14.307Z,23.10
2019-02-05T20:11:17.820Z,23.07
2019-02-05T20:14:21.333Z,23.03
2019-02-05T20:17:24.924Z,23.01
2019-02-05T20:20:31.548Z,22.98
2019-02-05T20:23:33.963Z,22.97
2019-02-05T20:26:37.698Z,22.94
2019-02-05T20:29:41.376Z,22.91
2019-02-05T20:32:44.972Z,22.89
2019-02-05T20:35:48.611Z,22.86
2019-02-05T20:38:53.710Z,22.85
2019-02-05T20:41:57.672Z,22.85
2019-02-05T20:45:01.209Z,22.83
2019-02-05T20:48:04.927Z,22.81
2019-02-05T20:51:09.788Z,22.81
2019-02-05T20:54:13.489Z,22.78
2019-02-05T20:57:17.088Z,22.77
2019-02-05T21:00:21.381Z,22.77
2019-02-05T21:03:25.025Z,22.77
2019-02-05T21:06:28.792Z,22.75
2019-02-05T21:09:32.460Z,22.77
2019-02-05T21:12:36.066Z,22.75
2019-02-05T21:15:40.651Z,22.75
2019-02-05T21:18:44.284Z,22.74
2019-02-05T21:21:47.838Z,22.76
2019-02-05T21:24:51.392Z,22.74
2019-02-05T21:27:57.965Z,22.72
2019-02-05T21:31:00.404Z,22.72
2019-02-05T21:34:14.853Z,22.71
2019-02-05T21:37:09.395Z,22.73
2019-02-05T21:40:15.816Z,22.70
2019-02-05T21:43:19.433Z,22.69
2019-02-05T21:46:23.022Z,22.68
2019-02-05T21:49:26.747Z,22.66
2019-02-05T21:52:30.507Z,22.65
2019-02-05T21:55:34.229Z,22.65
2019-02-05T21:58:38.905Z,22.65
2019-02-05T22:01:43.015Z,22.63
2019-02-05T22:04:46.641Z,22.63
2019-02-05T22:07:53.494Z,22.63
2019-02-05T22:10:58.673Z,22.60
2019-02-05T22:14:02.241Z,22.61
2019-02-05T22:17:05.828Z,22.59
2019-02-05T22:20:12.813Z,22.58
2019-02-05T22:23:16.520Z,22.59
2019-02-05T22:26:20.119Z,22.61
2019-02-05T22:29:24.255Z,22.59
2019-02-05T22:32:27.833Z,22.57
2019-02-05T22:35:31.480Z,22.56
2019-02-05T22:38:36.178Z,22.58
2019-02-05T22:41:39.774Z,22.57
2019-02-05T22:44:43.479Z,22.56
2019-02-05T22:47:47.302Z,22.56
2019-02-05T22:50:51.579Z,22.56
2019-02-05T22:53:55.441Z,22.57
2019-02-05T22:56:59.277Z,22.55
2019-02-05T23:00:03.271Z,22.54
2019-02-05T23:03:07.164Z,22.53
2019-02-05T23:06:30.813Z,22.55
2019-02-05T23:09:50.778Z,22.53
2019-02-05T23:12:58.195Z,22.53
2019-02-05T23:16:01.831Z,22.52
2019-02-05T23:19:09.505Z,22.50
2019-02-05T23:22:13.637Z,22.50
2019-02-05T23:25:17.320Z,22.50
2019-02-05T23:28:20.942Z,22.49
2019-02-05T23:31:24.936Z,22.49
2019-02-05T23:34:28.579Z,22.50
2019-02-05T23:37:32.150Z,22.49
2019-02-05T23:40:36.216Z,22.48
2019-02-05T23:43:39.961Z,22.47
2019-02-05T23:46:43.707Z,22.46
2019-02-05T23:49:48.848Z,22.46
2019-02-05T23:52:52.408Z,22.47
2019-02-05T23:55:55.948Z,22.47
2019-02-05T23:58:59.666Z,22.47
